Jackson, Idaho
Current Conditions -  °F | °C
As of 12:53 PM on Sunday 23 Nov 2014 (Local Time) from KBYI Reporting Station
Light Rain Light Rain  
Wind Chill: 27°   Ceiling: Unl
Heat Index: 38°   Visibility: 10mi
Dew Point: 25°   Wind: 23mph
Humidity: 60%   Direction: 260°W
Pressure: 30.23"   Gusts: 32mph
Location:  42.6416°N, 113.637°W
Report Text: KBYI 231953Z AUTO 26020G28KT 10SM -RA FEW030 03/M04 A3023 RMK AO2 PK WND 27030/1919 RAB01SNE17 SLP246 P0000 T00331039
Loading
Personal Weather Stations






























Interactive Weather Map New forecast layout! Learn more

10-Day Weather Forecast

Advertisements
Track Severe Weather on mobile